Flight Number: EUR1100 Duration: 2:45
Departure: Bucharest Otopeni (LROP) at 18:15 Distance: 1126 Nm
Arrival: Gatwick Airport (EGKK) at 21:00 Equipment: MD-81

Weather Information
Bucuresti Otopeni, Romania (LROP) 44-33N 026-06E 95M Sep 21, 2017 - 05:00 PM EDT / 2017.09.21 2100 UTC
Wind: from the WSW (240 degrees) at 14 MPH (12 KT):0
Visibility: greater than 7 mile(s):0 Temperature: 53 F (12 C) Dew Point: 48 F (9 C) Relative Humidity: 81% Pressure (altimeter): 29.88 in. Hg (1012 hPa)
ob: LROP 212100Z 24012KT CAVOK 12/09 Q1012 R26L/09//95 R26R/09//95 NOSIG cycle: 21
Sunrise: 04:05 Sunset: 16:11 (UTC)

London / Gatwick Airport, United Kingdom (EGKK) 51-09N 000-11W 0M Sep 21, 2017 - 05:20 PM EDT / 2017.09.21 2120 UTC
Wind: from the WSW (240 degrees) at 6 MPH (5 KT):0
Visibility: greater than 7 mile(s):0
Sky conditions: mostly clear Temperature: 53 F (12 C) Dew Point: 51 F (11 C) Relative Humidity: 93% Pressure (altimeter): 30.06 in. Hg (1018 hPa)
ob: EGKK 212120Z 24005KT 9999 FEW043 12/11 Q1018 cycle: 21
Sunrise: 05:50 Sunset: 17:57 (UTC)

TAF:2017/09/21 18:15 TAF EGKK 211702Z 2118/2224 21012KT 9999 SCT030 BECMG 2118/2120 28005KT BECMG 2122/2201 7000 TEMPO 2201/2208 3000 BR BCFG PROB40 2203/2208 0400 FG BKN001 BECMG 2208/2211 9999

Previous Pireps for this route
Date Aircraft Flight time Fuel used Landing rate On time
2012-07-16MD-813.05220000Yes
2012-12-07MD-8103.1719566-206Yes
2015-09-01MD-812.5623701-297Yes
(pireps marked green are flown by you)

Route map